createdAt,value
2022-08-10T00:01:51.503Z,14.14
2022-08-10T00:04:23.454Z,14.23
2022-08-10T00:06:55.664Z,14.19
2022-08-10T00:09:24.185Z,14.22
2022-08-10T00:11:52.317Z,14.21
2022-08-10T00:14:20.359Z,14.24
2022-08-10T00:16:47.835Z,14.20
2022-08-10T00:19:18.246Z,14.19
2022-08-10T00:21:46.618Z,14.19
2022-08-10T00:24:13.944Z,14.11
2022-08-10T00:27:52.460Z,14.11
2022-08-10T00:29:39.135Z,14.10
2022-08-10T00:32:06.430Z,14.08
2022-08-10T00:34:35.053Z,13.90
2022-08-10T00:37:11.225Z,13.70
2022-08-10T00:39:39.957Z,13.31
2022-08-10T00:42:11.518Z,13.29
2022-08-10T00:44:45.662Z,13.32
2022-08-10T00:47:22.682Z,13.31
2022-08-10T00:50:08.227Z,13.40
2022-08-10T00:52:36.868Z,13.51
2022-08-10T00:55:11.769Z,13.56
2022-08-10T00:57:40.019Z,13.56
2022-08-10T01:00:09.681Z,13.59
2022-08-10T01:02:36.999Z,13.67
2022-08-10T01:05:09.042Z,13.64
2022-08-10T01:08:02.665Z,13.70
2022-08-10T01:10:43.426Z,13.58
2022-08-10T01:13:25.492Z,13.60
2022-08-10T01:16:24.318Z,13.60
2022-08-10T01:19:31.673Z,13.57
2022-08-10T01:22:53.428Z,13.58
2022-08-10T01:26:11.989Z,13.63
2022-08-10T01:29:34.490Z,13.61
2022-08-10T01:32:07.224Z,13.51
2022-08-10T01:34:51.084Z,13.48
2022-08-10T01:37:23.399Z,13.47
2022-08-10T01:39:57.553Z,13.39
2022-08-10T01:42:31.149Z,13.32
2022-08-10T01:45:04.238Z,13.22
2022-08-10T01:48:01.609Z,13.22
2022-08-10T01:50:59.303Z,13.24
2022-08-10T01:53:41.268Z,13.15
2022-08-10T01:56:13.451Z,13.21
2022-08-10T01:58:44.422Z,13.24
2022-08-10T02:01:23.672Z,13.18
2022-08-10T02:04:08.705Z,13.16
2022-08-10T02:06:50.508Z,13.01
2022-08-10T02:09:37.034Z,13.05
2022-08-10T02:12:08.952Z,13.01
2022-08-10T02:14:44.001Z,12.94
2022-08-10T02:17:59.357Z,12.67
2022-08-10T02:20:26.226Z,12.39
2022-08-10T02:23:10.073Z,12.42
2022-08-10T02:25:44.203Z,12.71
2022-08-10T02:28:29.800Z,12.59
2022-08-10T02:31:30.521Z,12.13
2022-08-10T02:33:59.811Z,12.07
2022-08-10T02:36:34.664Z,12.11
2022-08-10T02:39:07.709Z,12.13
2022-08-10T02:45:22.325Z,12.05
2022-08-10T02:45:31.656Z,12.09
2022-08-10T02:48:29.317Z,12.18
2022-08-10T02:51:02.247Z,12.04
2022-08-10T02:53:55.408Z,11.83
2022-08-10T02:56:49.479Z,11.61
2022-08-10T02:59:25.178Z,11.64
2022-08-10T03:02:07.194Z,11.62
2022-08-10T03:04:55.378Z,11.62
2022-08-10T03:07:43.722Z,11.67
2022-08-10T03:10:18.003Z,11.60
2022-08-10T03:13:01.561Z,11.57
2022-08-10T03:15:33.032Z,11.46
2022-08-10T03:18:01.306Z,11.45
2022-08-10T03:20:39.741Z,11.48
2022-08-10T03:23:24.285Z,11.42
2022-08-10T03:26:14.892Z,11.53
2022-08-10T03:28:45.787Z,11.49
2022-08-10T03:31:13.433Z,11.30
2022-08-10T03:33:43.952Z,11.49
2022-08-10T03:36:42.492Z,11.47
2022-08-10T03:39:07.552Z,11.51
2022-08-10T03:41:53.483Z,11.57
2022-08-10T03:44:27.883Z,11.69
2022-08-10T03:47:02.433Z,11.52
2022-08-10T03:49:31.499Z,11.60
2022-08-10T03:52:07.114Z,11.71
2022-08-10T03:54:35.550Z,11.81
2022-08-10T03:57:15.102Z,11.71
2022-08-10T03:59:54.609Z,11.81
2022-08-10T04:02:46.823Z,11.77
2022-08-10T04:05:16.179Z,11.92
2022-08-10T04:07:51.653Z,11.93
2022-08-10T04:10:18.934Z,11.95
2022-08-10T04:12:46.932Z,12.14
2022-08-10T04:15:18.237Z,12.27
2022-08-10T04:18:05.067Z,12.27
2022-08-10T04:20:41.271Z,12.18
2022-08-10T04:23:25.582Z,12.07
2022-08-10T04:25:53.718Z,11.96
2022-08-10T04:28:20.950Z,12.04
2022-08-10T04:30:50.566Z,12.03
2022-08-10T04:33:21.200Z,12.18
2022-08-10T04:35:54.400Z,12.20
2022-08-10T04:38:22.684Z,12.18
2022-08-10T04:40:58.708Z,12.30
2022-08-10T04:43:31.905Z,12.44
2022-08-10T04:46:08.876Z,12.46
2022-08-10T04:49:01.576Z,12.61
2022-08-10T04:51:36.237Z,12.69
2022-08-10T04:54:15.923Z,12.65
2022-08-10T04:56:46.175Z,12.67
2022-08-10T04:59:14.275Z,12.51
2022-08-10T05:02:22.109Z,12.79
2022-08-10T05:04:34.974Z,12.93
2022-08-10T05:07:18.555Z,12.90
2022-08-10T05:10:02.781Z,13.03
2022-08-10T05:12:42.455Z,13.18
2022-08-10T05:15:12.970Z,13.36
2022-08-10T05:18:09.668Z,13.57
2022-08-10T05:20:37.398Z,13.63
2022-08-10T05:23:04.826Z,13.75
2022-08-10T05:25:32.478Z,13.90
2022-08-10T05:28:05.691Z,14.01
2022-08-10T05:30:40.377Z,14.21
2022-08-10T05:33:08.964Z,14.32
2022-08-10T05:35:55.501Z,14.44
2022-08-10T05:38:32.760Z,14.67
2022-08-10T05:41:01.320Z,14.79
2022-08-10T05:43:34.678Z,14.90
2022-08-10T05:46:20.000Z,15.08
2022-08-10T05:48:59.489Z,15.26
2022-08-10T05:51:29.191Z,15.45
2022-08-10T05:54:16.823Z,15.59
2022-08-10T05:56:55.937Z,15.67
2022-08-10T06:00:10.869Z,15.85
2022-08-10T06:02:47.155Z,16.03
2022-08-10T06:05:30.056Z,16.15
2022-08-10T06:08:12.263Z,16.36
2022-08-10T06:12:24.504Z,16.47
2022-08-10T06:14:18.349Z,16.61
2022-08-10T06:16:55.797Z,16.77
2022-08-10T06:19:25.661Z,16.91
2022-08-10T06:22:02.185Z,17.02
2022-08-10T06:24:57.281Z,17.24
2022-08-10T06:27:39.767Z,17.37
2022-08-10T06:30:19.862Z,17.53
2022-08-10T06:32:53.025Z,17.66
2022-08-10T06:35:21.181Z,17.77
2022-08-10T06:37:51.670Z,17.83
2022-08-10T06:40:21.001Z,17.98
2022-08-10T06:42:56.510Z,18.11
2022-08-10T06:45:30.357Z,18.21
2022-08-10T06:48:07.077Z,18.35
2022-08-10T06:50:58.313Z,18.40
2022-08-10T06:53:52.898Z,18.53
2022-08-10T06:56:50.888Z,18.72
2022-08-10T06:59:49.782Z,18.90
2022-08-10T07:03:08.034Z,19.15
2022-08-10T07:05:41.099Z,19.25
2022-08-10T07:08:44.255Z,19.46
2022-08-10T07:11:22.393Z,19.56
2022-08-10T07:14:15.317Z,19.71
2022-08-10T07:16:46.767Z,19.89
2022-08-10T07:19:15.398Z,20.01
2022-08-10T07:21:46.931Z,20.12
2022-08-10T07:24:17.720Z,20.31
2022-08-10T07:26:53.518Z,20.44
2022-08-10T07:29:53.905Z,20.60
2022-08-10T07:32:19.659Z,20.68
2022-08-10T07:34:49.709Z,20.78
2022-08-10T07:37:26.957Z,21.01
2022-08-10T07:40:05.026Z,21.10
2022-08-10T07:42:42.086Z,21.32
2022-08-10T07:45:32.029Z,21.47
2022-08-10T07:48:32.334Z,21.47
2022-08-10T07:51:16.714Z,21.72
2022-08-10T07:53:48.422Z,21.83
2022-08-10T07:56:48.483Z,22.01
2022-08-10T07:59:20.766Z,22.09
2022-08-10T08:01:52.210Z,22.22
2022-08-10T08:04:24.354Z,22.39
2022-08-10T08:06:53.941Z,22.52
2022-08-10T08:09:22.350Z,22.52
2022-08-10T08:11:53.562Z,22.65
2022-08-10T08:14:23.094Z,22.66
2022-08-10T08:16:54.252Z,22.78
2022-08-10T08:19:26.838Z,22.96
2022-08-10T08:24:04.926Z,23.13
2022-08-10T08:24:47.153Z,23.25
2022-08-10T08:27:37.382Z,23.38
2022-08-10T08:30:09.914Z,23.41
2022-08-10T08:32:44.308Z,23.49
2022-08-10T08:35:15.987Z,23.54
2022-08-10T08:38:32.043Z,23.61
2022-08-10T08:41:04.192Z,23.77
2022-08-10T08:43:50.482Z,23.84
2022-08-10T08:46:35.090Z,23.98
2022-08-10T08:50:05.104Z,24.20
2022-08-10T08:52:41.135Z,24.43
2022-08-10T08:56:03.807Z,24.51
2022-08-10T08:58:48.021Z,24.75
2022-08-10T09:01:36.699Z,24.89
2022-08-10T09:04:44.844Z,24.91
2022-08-10T09:08:00.852Z,24.89
2022-08-10T09:11:05.419Z,24.74
2022-08-10T09:13:57.713Z,24.72
2022-08-10T09:16:52.076Z,24.99
2022-08-10T09:19:37.836Z,25.20
2022-08-10T09:22:19.358Z,25.29
2022-08-10T09:25:21.334Z,25.64
2022-08-10T09:28:04.133Z,25.85
2022-08-10T09:31:18.519Z,26.16
2022-08-10T09:36:20.904Z,26.11
2022-08-10T09:38:01.176Z,26.06
2022-08-10T09:41:05.093Z,26.04
2022-08-10T09:44:00.762Z,25.89
2022-08-10T09:46:52.208Z,26.05
2022-08-10T09:49:56.342Z,26.30
2022-08-10T09:52:58.892Z,26.78
2022-08-10T09:56:18.118Z,27.08
2022-08-10T10:00:01.739Z,27.43
2022-08-10T10:02:58.288Z,27.63
2022-08-10T10:05:31.211Z,27.81
2022-08-10T10:08:43.270Z,28.01
2022-08-10T10:11:22.360Z,28.39
2022-08-10T10:14:28.008Z,28.82
2022-08-10T10:17:36.345Z,28.94
2022-08-10T10:20:15.939Z,29.06
2022-08-10T10:23:01.670Z,29.43
2022-08-10T10:26:15.894Z,29.68
2022-08-10T10:29:24.702Z,29.57
2022-08-10T10:32:07.390Z,29.04
2022-08-10T10:34:50.774Z,28.62
2022-08-10T10:38:01.920Z,28.04
2022-08-10T10:40:21.547Z,27.86
2022-08-10T10:43:10.710Z,27.61
2022-08-10T10:46:13.485Z,27.55
2022-08-10T10:49:01.787Z,27.89
2022-08-10T10:51:55.913Z,28.50
2022-08-10T10:54:55.705Z,29.20
2022-08-10T10:57:59.056Z,29.54
2022-08-10T11:01:21.006Z,30.02
2022-08-10T11:04:09.314Z,30.34
2022-08-10T11:07:30.976Z,30.74
2022-08-10T11:10:32.025Z,30.66
2022-08-10T11:14:23.103Z,30.26
2022-08-10T11:16:26.362Z,29.80
2022-08-10T11:19:13.602Z,29.70
2022-08-10T11:22:05.881Z,30.16
2022-08-10T11:25:00.377Z,30.73
2022-08-10T11:31:20.270Z,30.99
2022-08-10T11:34:11.668Z,31.33
2022-08-10T11:36:53.905Z,31.79
2022-08-10T11:39:49.657Z,32.13
2022-08-10T11:42:26.618Z,32.74
2022-08-10T11:45:29.367Z,33.03
2022-08-10T11:48:53.038Z,32.28
2022-08-10T11:52:16.967Z,31.79
2022-08-10T11:54:58.862Z,31.52
2022-08-10T11:57:54.093Z,31.98
2022-08-10T12:00:20.507Z,32.18
2022-08-10T12:03:07.746Z,32.14
2022-08-10T12:05:51.873Z,32.07
2022-08-10T12:10:02.626Z,32.38
2022-08-10T12:11:25.248Z,32.87
2022-08-10T12:14:24.805Z,33.69
2022-08-10T12:17:30.089Z,34.00
2022-08-10T12:20:23.868Z,33.98
2022-08-10T12:23:02.485Z,34.55
2022-08-10T12:25:58.933Z,34.84
2022-08-10T12:28:50.885Z,34.39
2022-08-10T12:31:43.830Z,34.74
2022-08-10T12:34:19.769Z,35.34
2022-08-10T12:37:18.219Z,35.18
2022-08-10T12:40:36.316Z,34.79
2022-08-10T12:44:04.685Z,33.85
2022-08-10T12:46:51.371Z,33.11
2022-08-10T12:50:29.849Z,33.48
2022-08-10T12:53:15.355Z,33.58
2022-08-10T12:55:45.768Z,33.32
2022-08-10T12:58:59.244Z,33.11
2022-08-10T13:01:17.351Z,32.65
2022-08-10T13:04:20.821Z,32.32
2022-08-10T13:06:53.563Z,31.68
2022-08-10T13:09:25.380Z,31.50
2022-08-10T13:12:35.042Z,32.00
2022-08-10T13:15:45.424Z,32.94
2022-08-10T13:18:18.702Z,33.46
2022-08-10T13:20:53.861Z,33.98
2022-08-10T13:23:32.118Z,34.54
2022-08-10T13:26:04.289Z,34.90
2022-08-10T13:28:49.652Z,35.46
2022-08-10T13:31:35.708Z,35.19
2022-08-10T13:34:43.027Z,35.35
2022-08-10T13:37:26.841Z,35.29
2022-08-10T13:40:00.436Z,35.14
2022-08-10T13:42:34.267Z,34.54
2022-08-10T13:45:12.471Z,34.04
2022-08-10T13:47:48.987Z,33.57
2022-08-10T13:50:35.475Z,33.00
2022-08-10T13:53:14.840Z,32.39
2022-08-10T13:55:57.353Z,32.14
2022-08-10T13:58:37.907Z,32.09
2022-08-10T14:01:17.653Z,32.07
2022-08-10T14:03:46.231Z,31.85
2022-08-10T14:06:15.695Z,31.58
2022-08-10T14:08:50.601Z,31.52
2022-08-10T14:11:20.606Z,31.76
2022-08-10T14:14:04.060Z,32.43
2022-08-10T14:16:42.789Z,33.29
2022-08-10T14:19:33.065Z,33.86
2022-08-10T14:22:09.492Z,33.59
2022-08-10T14:24:38.578Z,33.12
2022-08-10T14:27:09.280Z,32.47
2022-08-10T14:30:00.871Z,31.56
2022-08-10T14:32:44.118Z,31.41
2022-08-10T14:36:18.995Z,31.14
2022-08-10T14:38:09.794Z,30.82
2022-08-10T14:40:44.169Z,31.28
2022-08-10T14:43:28.561Z,32.04
2022-08-10T14:46:05.756Z,32.94
2022-08-10T14:48:45.515Z,33.40
2022-08-10T14:51:26.252Z,33.83
2022-08-10T14:54:01.972Z,34.28
2022-08-10T14:56:36.799Z,34.50
2022-08-10T14:59:07.740Z,34.60
2022-08-10T15:02:01.423Z,34.00
2022-08-10T15:04:34.506Z,33.41
2022-08-10T15:07:12.788Z,32.95
2022-08-10T15:10:00.688Z,33.04
2022-08-10T15:12:34.759Z,33.47
2022-08-10T15:15:09.917Z,33.60
2022-08-10T15:17:43.314Z,33.30
2022-08-10T15:20:21.004Z,32.87
2022-08-10T15:22:55.508Z,32.83
2022-08-10T15:25:25.996Z,32.85
2022-08-10T15:28:05.598Z,32.97
2022-08-10T15:30:55.685Z,33.29
2022-08-10T15:34:04.490Z,33.58
2022-08-10T15:37:02.499Z,34.13
2022-08-10T15:40:24.543Z,34.48
2022-08-10T15:43:25.277Z,34.01
2022-08-10T15:45:58.516Z,34.07
2022-08-10T15:48:58.879Z,34.24
2022-08-10T15:51:53.645Z,34.35
2022-08-10T15:54:54.475Z,34.47
2022-08-10T15:57:28.093Z,34.59
2022-08-10T16:00:08.374Z,34.69
2022-08-10T16:02:52.351Z,34.73
2022-08-10T16:06:01.972Z,34.73
2022-08-10T16:10:22.902Z,34.60
2022-08-10T16:11:59.109Z,34.35
2022-08-10T16:14:31.551Z,33.96
2022-08-10T16:17:01.649Z,33.25
2022-08-10T16:19:30.735Z,32.58
2022-08-10T16:22:37.156Z,32.27
2022-08-10T16:24:56.370Z,31.93
2022-08-10T16:27:33.295Z,31.35
2022-08-10T16:30:07.732Z,31.14
2022-08-10T16:32:50.310Z,30.55
2022-08-10T16:35:20.310Z,30.68
2022-08-10T16:37:58.227Z,30.58
2022-08-10T16:40:29.581Z,30.54
2022-08-10T16:43:00.188Z,30.40
2022-08-10T16:45:51.296Z,30.13
2022-08-10T16:48:48.664Z,29.64
2022-08-10T16:51:17.584Z,29.45
2022-08-10T16:54:02.010Z,29.27
2022-08-10T16:56:48.470Z,29.20
2022-08-10T16:59:20.763Z,28.76
2022-08-10T17:02:20.262Z,28.73
2022-08-10T17:05:00.955Z,28.51
2022-08-10T17:08:12.891Z,28.49
2022-08-10T17:10:42.698Z,28.32
2022-08-10T17:13:38.806Z,28.20
2022-08-10T17:16:17.805Z,28.03
2022-08-10T17:18:55.083Z,27.76
2022-08-10T17:21:31.150Z,27.76
2022-08-10T17:24:08.106Z,27.64
2022-08-10T17:26:38.278Z,27.52
2022-08-10T17:29:57.254Z,27.41
2022-08-10T17:32:46.146Z,27.28
2022-08-10T17:35:22.504Z,27.14
2022-08-10T17:38:10.308Z,27.11
2022-08-10T17:41:06.938Z,27.07
2022-08-10T17:43:46.387Z,26.88
2022-08-10T17:46:31.317Z,26.80
2022-08-10T17:49:19.675Z,26.67
2022-08-10T17:51:58.317Z,26.52
2022-08-10T17:55:09.020Z,26.33
2022-08-10T17:57:47.420Z,26.15
2022-08-10T18:00:41.722Z,26.07
2022-08-10T18:03:29.821Z,25.91
2022-08-10T18:06:06.164Z,25.81
2022-08-10T18:09:03.380Z,25.72
2022-08-10T18:11:35.026Z,25.57
2022-08-10T18:14:24.275Z,25.27
2022-08-10T18:16:55.043Z,25.19
2022-08-10T18:19:30.627Z,25.12
2022-08-10T18:21:59.278Z,25.01
2022-08-10T18:24:56.449Z,24.80
2022-08-10T18:27:46.524Z,24.73
2022-08-10T18:30:30.563Z,24.64
2022-08-10T18:33:19.012Z,24.52
2022-08-10T18:35:48.367Z,24.49
2022-08-10T18:38:26.877Z,24.40
2022-08-10T18:41:16.123Z,24.29
2022-08-10T18:44:19.359Z,24.12
2022-08-10T18:47:16.442Z,24.09
2022-08-10T18:50:05.939Z,23.96
2022-08-10T18:52:36.101Z,23.85
2022-08-10T18:55:13.937Z,23.77
2022-08-10T18:58:27.039Z,23.62
2022-08-10T19:01:32.967Z,23.17
2022-08-10T19:04:28.014Z,22.88
2022-08-10T19:07:32.241Z,22.55
2022-08-10T19:10:21.049Z,22.22
2022-08-10T19:13:17.709Z,21.95
2022-08-10T19:16:10.765Z,21.72
2022-08-10T19:19:21.787Z,21.58
2022-08-10T19:22:29.239Z,21.40
2022-08-10T19:26:42.996Z,21.19
2022-08-10T19:28:30.286Z,20.90
2022-08-10T19:31:15.376Z,20.74
2022-08-10T19:34:24.368Z,20.59
2022-08-10T19:37:03.267Z,20.44
2022-08-10T19:40:12.408Z,20.42
2022-08-10T19:42:55.980Z,20.39
2022-08-10T19:46:01.164Z,20.28
2022-08-10T19:49:00.269Z,20.11
2022-08-10T19:51:37.488Z,20.01
2022-08-10T19:54:46.410Z,19.84
2022-08-10T19:58:04.628Z,19.68
2022-08-10T20:00:47.190Z,19.36
2022-08-10T20:03:37.100Z,19.22
2022-08-10T20:06:42.643Z,19.12
2022-08-10T20:09:39.009Z,18.64
2022-08-10T20:12:10.590Z,18.27
2022-08-10T20:15:17.059Z,18.40
2022-08-10T20:18:02.253Z,18.12
2022-08-10T20:20:48.757Z,18.01
2022-08-10T20:23:33.767Z,18.05
2022-08-10T20:26:32.713Z,17.82
2022-08-10T20:29:16.107Z,17.56
2022-08-10T20:32:15.511Z,17.64
2022-08-10T20:34:48.074Z,17.32
2022-08-10T20:38:03.981Z,17.31
2022-08-10T20:41:09.213Z,17.00
2022-08-10T20:43:52.154Z,16.83
2022-08-10T20:46:27.729Z,17.16
2022-08-10T20:49:32.462Z,17.26
2022-08-10T20:52:03.358Z,17.06
2022-08-10T20:54:51.519Z,17.01
2022-08-10T20:58:04.626Z,17.23
2022-08-10T21:00:36.178Z,17.36
2022-08-10T21:03:09.077Z,17.39
2022-08-10T21:06:27.356Z,17.31
2022-08-10T21:09:33.189Z,17.12
2022-08-10T21:12:44.761Z,17.06
2022-08-10T21:15:43.850Z,17.01
2022-08-10T21:18:44.659Z,16.84
2022-08-10T21:21:37.751Z,16.83
2022-08-10T21:24:21.268Z,16.85
2022-08-10T21:27:49.684Z,16.83
2022-08-10T21:31:02.574Z,16.79
2022-08-10T21:33:49.126Z,16.62
2022-08-10T21:36:35.437Z,16.66
2022-08-10T21:39:22.381Z,16.70
2022-08-10T21:42:57.664Z,16.60
2022-08-10T21:46:18.015Z,16.55
2022-08-10T21:49:15.194Z,16.40
2022-08-10T21:52:20.775Z,16.37
2022-08-10T21:55:22.085Z,16.25
2022-08-10T21:59:00.870Z,16.15
2022-08-10T22:02:10.089Z,16.11
2022-08-10T22:05:26.026Z,15.91
2022-08-10T22:08:37.237Z,15.95
2022-08-10T22:11:30.117Z,15.98
2022-08-10T22:14:51.763Z,15.71
2022-08-10T22:18:03.163Z,15.67
2022-08-10T22:21:45.905Z,15.66
2022-08-10T22:25:16.559Z,15.73
2022-08-10T22:28:17.681Z,15.77
2022-08-10T22:31:32.729Z,15.78
2022-08-10T22:34:39.372Z,15.58
2022-08-10T22:37:40.023Z,15.43
2022-08-10T22:40:36.614Z,15.34
2022-08-10T22:43:51.027Z,15.39
2022-08-10T22:46:53.158Z,15.11
2022-08-10T22:49:25.937Z,15.10
2022-08-10T22:52:14.400Z,15.14
2022-08-10T22:58:25.739Z,14.95
2022-08-10T23:01:05.218Z,14.90
2022-08-10T23:03:38.836Z,14.59
2022-08-10T23:06:17.313Z,14.63
2022-08-10T23:09:00.228Z,14.76
2022-08-10T23:11:30.273Z,14.65
2022-08-10T23:14:34.163Z,14.45
2022-08-10T23:17:21.887Z,14.57
2022-08-10T23:20:13.606Z,14.23
2022-08-10T23:22:49.099Z,14.24
2022-08-10T23:25:30.309Z,14.40
2022-08-10T23:28:12.312Z,14.59
2022-08-10T23:30:51.550Z,14.81
2022-08-10T23:33:37.606Z,14.83
2022-08-10T23:36:34.268Z,14.64
2022-08-10T23:39:24.467Z,14.75
2022-08-10T23:42:20.735Z,14.86
2022-08-10T23:44:56.378Z,14.91
2022-08-10T23:47:55.234Z,15.01
2022-08-10T23:50:25.336Z,15.02
2022-08-10T23:53:00.658Z,15.09
2022-08-10T23:55:33.913Z,15.09
2022-08-10T23:58:31.610Z,15.10
